Tecumseh, Canada
Current Conditions -  °F | °C
As of 9:00 AM on Saturday 01 Nov 2014 (Local Time) from CYQG Reporting Station
Broken Clouds Broken Clouds  
Wind Chill: -6°   Ceiling: 4100
Heat Index:   Visibility: 15mi
Dew Point: -3°   Wind: 22mph
Humidity: 75%   Direction: 360°N
Pressure: 30.25"   Gusts: 30mph
Location:  42.32°N, 82.89°W
Report Text: CYQG 011300Z 36019G26KT 15SM FEW024 BKN041 01/M03 A3025 RMK CF1SC5 SLP250
Loading
Personal Weather Stations






























Interactive Weather Map
Tropical Storm Tracking
New forecast layout! Learn more

10-Day Weather Forecast

Advertisements
Track Severe Weather on mobile